sensor_id;sensor_type;location;lat;lon;timestamp;P1;durP1;ratioP1;P2;durP2;ratioP2
71771;SDS011;59606;52.138;5.424;2023-12-14T00:01:40;14.90;;;6.13;;
71771;SDS011;59606;52.138;5.424;2023-12-14T00:04:07;15.93;;;5.97;;
71771;SDS011;59606;52.138;5.424;2023-12-14T00:06:34;12.80;;;5.83;;
71771;SDS011;59606;52.138;5.424;2023-12-14T00:09:01;14.02;;;5.70;;
71771;SDS011;59606;52.138;5.424;2023-12-14T00:11:28;15.35;;;5.70;;
71771;SDS011;59606;52.138;5.424;2023-12-14T00:13:54;15.90;;;6.35;;
71771;SDS011;59606;52.138;5.424;2023-12-14T00:16:21;13.68;;;6.10;;
71771;SDS011;59606;52.138;5.424;2023-12-14T00:18:47;12.87;;;6.07;;
71771;SDS011;59606;52.138;5.424;2023-12-14T00:21:14;12.65;;;5.38;;
71771;SDS011;59606;52.138;5.424;2023-12-14T00:23:41;15.75;;;6.25;;
71771;SDS011;59606;52.138;5.424;2023-12-14T00:26:07;12.30;;;5.72;;
71771;SDS011;59606;52.138;5.424;2023-12-14T00:28:34;11.80;;;5.20;;
71771;SDS011;59606;52.138;5.424;2023-12-14T00:31:00;12.97;;;5.97;;
71771;SDS011;59606;52.138;5.424;2023-12-14T00:33:27;9.95;;;4.90;;
71771;SDS011;59606;52.138;5.424;2023-12-14T00:35:54;12.68;;;5.80;;
71771;SDS011;59606;52.138;5.424;2023-12-14T00:38:20;14.15;;;5.32;;
71771;SDS011;59606;52.138;5.424;2023-12-14T00:40:47;13.98;;;5.88;;
71771;SDS011;59606;52.138;5.424;2023-12-14T00:43:13;12.10;;;5.20;;
71771;SDS011;59606;52.138;5.424;2023-12-14T00:45:40;13.00;;;5.28;;
71771;SDS011;59606;52.138;5.424;2023-12-14T00:48:07;12.00;;;5.30;;
71771;SDS011;59606;52.138;5.424;2023-12-14T00:50:34;11.65;;;5.07;;
71771;SDS011;59606;52.138;5.424;2023-12-14T00:53:00;12.63;;;5.25;;
71771;SDS011;59606;52.138;5.424;2023-12-14T00:55:27;10.60;;;4.70;;
71771;SDS011;59606;52.138;5.424;2023-12-14T00:57:53;11.30;;;5.07;;
71771;SDS011;59606;52.138;5.424;2023-12-14T01:00:20;12.38;;;5.60;;
71771;SDS011;59606;52.138;5.424;2023-12-14T01:02:46;11.60;;;5.72;;
71771;SDS011;59606;52.138;5.424;2023-12-14T01:05:13;10.80;;;5.63;;
71771;SDS011;59606;52.138;5.424;2023-12-14T01:07:40;13.37;;;5.70;;
71771;SDS011;59606;52.138;5.424;2023-12-14T01:10:06;11.73;;;5.72;;
71771;SDS011;59606;52.138;5.424;2023-12-14T01:12:33;13.65;;;6.10;;
71771;SDS011;59606;52.138;5.424;2023-12-14T01:15:01;11.48;;;5.53;;
71771;SDS011;59606;52.138;5.424;2023-12-14T01:17:27;13.20;;;5.95;;
71771;SDS011;59606;52.138;5.424;2023-12-14T01:19:55;10.87;;;4.97;;
71771;SDS011;59606;52.138;5.424;2023-12-14T01:22:21;13.35;;;5.75;;
71771;SDS011;59606;52.138;5.424;2023-12-14T01:24:48;12.65;;;5.93;;
71771;SDS011;59606;52.138;5.424;2023-12-14T01:27:14;14.57;;;5.65;;
71771;SDS011;59606;52.138;5.424;2023-12-14T01:29:41;11.98;;;4.95;;
71771;SDS011;59606;52.138;5.424;2023-12-14T01:32:07;10.80;;;5.00;;
71771;SDS011;59606;52.138;5.424;2023-12-14T01:34:34;12.05;;;5.32;;
71771;SDS011;59606;52.138;5.424;2023-12-14T01:37:01;10.20;;;5.07;;
71771;SDS011;59606;52.138;5.424;2023-12-14T01:39:27;11.68;;;5.45;;
71771;SDS011;59606;52.138;5.424;2023-12-14T01:41:54;13.50;;;6.07;;
71771;SDS011;59606;52.138;5.424;2023-12-14T01:44:20;14.00;;;5.40;;
71771;SDS011;59606;52.138;5.424;2023-12-14T01:46:47;13.70;;;5.82;;
71771;SDS011;59606;52.138;5.424;2023-12-14T01:49:13;11.90;;;5.70;;
71771;SDS011;59606;52.138;5.424;2023-12-14T01:51:40;10.43;;;4.82;;
71771;SDS011;59606;52.138;5.424;2023-12-14T01:54:06;12.50;;;6.13;;
71771;SDS011;59606;52.138;5.424;2023-12-14T01:56:33;13.50;;;5.67;;
71771;SDS011;59606;52.138;5.424;2023-12-14T01:58:59;8.63;;;4.50;;
71771;SDS011;59606;52.138;5.424;2023-12-14T02:01:39;10.98;;;5.10;;
71771;SDS011;59606;52.138;5.424;2023-12-14T02:04:09;11.43;;;5.18;;
71771;SDS011;59606;52.138;5.424;2023-12-14T02:06:37;12.35;;;5.45;;
71771;SDS011;59606;52.138;5.424;2023-12-14T02:09:04;12.73;;;5.37;;
71771;SDS011;59606;52.138;5.424;2023-12-14T02:11:30;14.35;;;5.80;;
71771;SDS011;59606;52.138;5.424;2023-12-14T02:13:57;11.40;;;5.53;;
71771;SDS011;59606;52.138;5.424;2023-12-14T02:16:24;10.45;;;4.88;;
71771;SDS011;59606;52.138;5.424;2023-12-14T02:18:50;12.00;;;5.78;;
71771;SDS011;59606;52.138;5.424;2023-12-14T02:21:17;11.63;;;5.23;;
71771;SDS011;59606;52.138;5.424;2023-12-14T02:23:45;12.15;;;5.18;;
71771;SDS011;59606;52.138;5.424;2023-12-14T02:26:12;9.82;;;5.20;;
71771;SDS011;59606;52.138;5.424;2023-12-14T02:28:39;12.00;;;5.15;;
71771;SDS011;59606;52.138;5.424;2023-12-14T02:31:06;10.40;;;5.35;;
71771;SDS011;59606;52.138;5.424;2023-12-14T02:33:33;11.80;;;4.83;;
71771;SDS011;59606;52.138;5.424;2023-12-14T02:35:59;11.35;;;5.10;;
71771;SDS011;59606;52.138;5.424;2023-12-14T02:38:26;14.10;;;5.45;;
71771;SDS011;59606;52.138;5.424;2023-12-14T02:40:53;12.57;;;5.03;;
71771;SDS011;59606;52.138;5.424;2023-12-14T02:43:19;11.73;;;5.70;;
71771;SDS011;59606;52.138;5.424;2023-12-14T02:45:47;12.40;;;5.17;;
71771;SDS011;59606;52.138;5.424;2023-12-14T02:48:14;11.02;;;4.75;;
71771;SDS011;59606;52.138;5.424;2023-12-14T02:50:40;11.55;;;5.25;;
71771;SDS011;59606;52.138;5.424;2023-12-14T02:53:07;9.95;;;5.00;;
71771;SDS011;59606;52.138;5.424;2023-12-14T02:55:34;11.88;;;5.50;;
71771;SDS011;59606;52.138;5.424;2023-12-14T02:58:00;11.83;;;4.83;;
71771;SDS011;59606;52.138;5.424;2023-12-14T03:00:27;14.23;;;6.22;;
71771;SDS011;59606;52.138;5.424;2023-12-14T03:02:53;19.08;;;6.65;;
71771;SDS011;59606;52.138;5.424;2023-12-14T03:05:20;12.45;;;5.53;;
71771;SDS011;59606;52.138;5.424;2023-12-14T03:07:47;10.25;;;5.45;;
71771;SDS011;59606;52.138;5.424;2023-12-14T03:10:13;15.43;;;5.13;;
71771;SDS011;59606;52.138;5.424;2023-12-14T03:12:40;12.38;;;6.20;;
71771;SDS011;59606;52.138;5.424;2023-12-14T03:15:06;14.38;;;6.15;;
71771;SDS011;59606;52.138;5.424;2023-12-14T03:17:34;13.88;;;6.47;;
71771;SDS011;59606;52.138;5.424;2023-12-14T03:20:01;10.70;;;4.93;;
71771;SDS011;59606;52.138;5.424;2023-12-14T03:22:29;9.63;;;4.93;;
71771;SDS011;59606;52.138;5.424;2023-12-14T03:24:56;14.63;;;6.20;;
71771;SDS011;59606;52.138;5.424;2023-12-14T03:27:22;10.70;;;5.13;;
71771;SDS011;59606;52.138;5.424;2023-12-14T03:29:49;14.95;;;6.00;;
71771;SDS011;59606;52.138;5.424;2023-12-14T03:32:16;11.38;;;5.93;;
71771;SDS011;59606;52.138;5.424;2023-12-14T03:34:42;12.50;;;5.47;;
71771;SDS011;59606;52.138;5.424;2023-12-14T03:37:09;12.38;;;5.25;;
71771;SDS011;59606;52.138;5.424;2023-12-14T03:39:35;13.57;;;5.22;;
71771;SDS011;59606;52.138;5.424;2023-12-14T03:42:02;11.75;;;5.50;;
71771;SDS011;59606;52.138;5.424;2023-12-14T03:44:29;14.70;;;6.38;;
71771;SDS011;59606;52.138;5.424;2023-12-14T03:46:55;16.63;;;5.97;;
71771;SDS011;59606;52.138;5.424;2023-12-14T03:49:24;14.73;;;6.25;;
71771;SDS011;59606;52.138;5.424;2023-12-14T03:51:50;14.48;;;6.72;;
71771;SDS011;59606;52.138;5.424;2023-12-14T03:54:17;13.35;;;6.22;;
71771;SDS011;59606;52.138;5.424;2023-12-14T03:56:44;11.98;;;5.38;;
71771;SDS011;59606;52.138;5.424;2023-12-14T03:59:10;13.03;;;6.13;;
71771;SDS011;59606;52.138;5.424;2023-12-14T04:01:37;13.75;;;5.90;;
71771;SDS011;59606;52.138;5.424;2023-12-14T04:04:06;14.45;;;6.22;;
71771;SDS011;59606;52.138;5.424;2023-12-14T04:06:32;14.23;;;6.10;;
71771;SDS011;59606;52.138;5.424;2023-12-14T04:08:59;11.80;;;5.45;;
71771;SDS011;59606;52.138;5.424;2023-12-14T04:11:25;15.07;;;5.97;;
71771;SDS011;59606;52.138;5.424;2023-12-14T04:13:52;17.63;;;6.72;;
71771;SDS011;59606;52.138;5.424;2023-12-14T04:16:20;11.65;;;5.43;;
71771;SDS011;59606;52.138;5.424;2023-12-14T04:18:51;12.52;;;6.18;;
71771;SDS011;59606;52.138;5.424;2023-12-14T04:21:18;11.82;;;5.88;;
71771;SDS011;59606;52.138;5.424;2023-12-14T04:23:45;14.30;;;5.00;;
71771;SDS011;59606;52.138;5.424;2023-12-14T04:26:12;12.07;;;5.70;;
71771;SDS011;59606;52.138;5.424;2023-12-14T04:28:40;10.88;;;5.00;;
71771;SDS011;59606;52.138;5.424;2023-12-14T04:31:07;13.77;;;5.10;;
71771;SDS011;59606;52.138;5.424;2023-12-14T04:33:33;14.20;;;5.10;;
71771;SDS011;59606;52.138;5.424;2023-12-14T04:36:00;13.73;;;5.47;;
71771;SDS011;59606;52.138;5.424;2023-12-14T04:38:27;13.15;;;5.75;;
71771;SDS011;59606;52.138;5.424;2023-12-14T04:40:54;10.93;;;4.78;;
71771;SDS011;59606;52.138;5.424;2023-12-14T04:43:21;12.30;;;5.43;;
71771;SDS011;59606;52.138;5.424;2023-12-14T04:45:47;14.45;;;5.10;;
71771;SDS011;59606;52.138;5.424;2023-12-14T04:48:14;11.07;;;5.13;;
71771;SDS011;59606;52.138;5.424;2023-12-14T04:50:40;10.93;;;5.32;;
71771;SDS011;59606;52.138;5.424;2023-12-14T04:53:07;11.32;;;5.20;;
71771;SDS011;59606;52.138;5.424;2023-12-14T04:55:34;12.02;;;4.72;;
71771;SDS011;59606;52.138;5.424;2023-12-14T04:58:01;12.20;;;4.97;;
71771;SDS011;59606;52.138;5.424;2023-12-14T05:00:27;12.27;;;4.63;;
71771;SDS011;59606;52.138;5.424;2023-12-14T05:02:54;14.35;;;5.38;;
71771;SDS011;59606;52.138;5.424;2023-12-14T05:05:20;11.82;;;5.20;;
71771;SDS011;59606;52.138;5.424;2023-12-14T05:07:47;10.15;;;4.30;;
71771;SDS011;59606;52.138;5.424;2023-12-14T05:10:13;11.93;;;4.82;;
71771;SDS011;59606;52.138;5.424;2023-12-14T05:12:40;7.97;;;3.73;;
71771;SDS011;59606;52.138;5.424;2023-12-14T05:15:07;10.57;;;4.80;;
71771;SDS011;59606;52.138;5.424;2023-12-14T05:17:34;9.75;;;4.35;;
71771;SDS011;59606;52.138;5.424;2023-12-14T05:20:07;8.95;;;4.50;;
71771;SDS011;59606;52.138;5.424;2023-12-14T05:22:34;9.18;;;4.47;;
71771;SDS011;59606;52.138;5.424;2023-12-14T05:25:02;11.10;;;4.60;;
71771;SDS011;59606;52.138;5.424;2023-12-14T05:27:29;13.95;;;5.15;;
71771;SDS011;59606;52.138;5.424;2023-12-14T05:29:55;9.57;;;4.60;;
71771;SDS011;59606;52.138;5.424;2023-12-14T05:32:22;12.07;;;5.28;;
71771;SDS011;59606;52.138;5.424;2023-12-14T05:34:48;10.55;;;4.15;;
71771;SDS011;59606;52.138;5.424;2023-12-14T05:37:15;11.73;;;4.70;;
71771;SDS011;59606;52.138;5.424;2023-12-14T05:39:42;13.30;;;4.85;;
71771;SDS011;59606;52.138;5.424;2023-12-14T05:42:09;11.15;;;4.20;;
71771;SDS011;59606;52.138;5.424;2023-12-14T05:44:36;14.70;;;4.72;;
71771;SDS011;59606;52.138;5.424;2023-12-14T05:47:02;10.55;;;4.40;;
71771;SDS011;59606;52.138;5.424;2023-12-14T05:49:29;12.20;;;4.30;;
71771;SDS011;59606;52.138;5.424;2023-12-14T05:51:57;11.02;;;4.40;;
71771;SDS011;59606;52.138;5.424;2023-12-14T05:54:25;10.27;;;4.68;;
71771;SDS011;59606;52.138;5.424;2023-12-14T05:56:51;11.00;;;4.20;;
71771;SDS011;59606;52.138;5.424;2023-12-14T05:59:18;9.70;;;3.97;;
71771;SDS011;59606;52.138;5.424;2023-12-14T06:01:44;8.73;;;3.60;;
71771;SDS011;59606;52.138;5.424;2023-12-14T06:04:11;10.13;;;4.43;;
71771;SDS011;59606;52.138;5.424;2023-12-14T06:06:38;11.10;;;4.20;;
71771;SDS011;59606;52.138;5.424;2023-12-14T06:09:05;10.13;;;3.83;;
71771;SDS011;59606;52.138;5.424;2023-12-14T06:11:34;10.18;;;3.90;;
71771;SDS011;59606;52.138;5.424;2023-12-14T06:14:03;8.50;;;3.30;;
71771;SDS011;59606;52.138;5.424;2023-12-14T06:16:30;9.05;;;4.10;;
71771;SDS011;59606;52.138;5.424;2023-12-14T06:18:56;9.82;;;3.75;;
71771;SDS011;59606;52.138;5.424;2023-12-14T06:21:23;7.65;;;3.65;;
71771;SDS011;59606;52.138;5.424;2023-12-14T06:23:55;9.32;;;4.22;;
71771;SDS011;59606;52.138;5.424;2023-12-14T06:26:22;14.80;;;3.83;;
71771;SDS011;59606;52.138;5.424;2023-12-14T06:28:49;8.98;;;3.72;;
71771;SDS011;59606;52.138;5.424;2023-12-14T06:31:17;9.45;;;3.47;;
71771;SDS011;59606;52.138;5.424;2023-12-14T06:33:44;8.55;;;3.15;;
71771;SDS011;59606;52.138;5.424;2023-12-14T06:36:11;9.75;;;3.65;;
71771;SDS011;59606;52.138;5.424;2023-12-14T06:38:38;9.30;;;3.60;;
71771;SDS011;59606;52.138;5.424;2023-12-14T06:41:06;8.27;;;3.40;;
71771;SDS011;59606;52.138;5.424;2023-12-14T06:43:33;12.38;;;3.97;;
71771;SDS011;59606;52.138;5.424;2023-12-14T06:46:00;9.75;;;4.03;;
71771;SDS011;59606;52.138;5.424;2023-12-14T06:48:26;12.07;;;3.88;;
71771;SDS011;59606;52.138;5.424;2023-12-14T06:50:53;9.07;;;3.97;;
71771;SDS011;59606;52.138;5.424;2023-12-14T06:53:21;8.75;;;3.88;;
71771;SDS011;59606;52.138;5.424;2023-12-14T06:55:47;9.40;;;4.03;;
71771;SDS011;59606;52.138;5.424;2023-12-14T06:58:14;8.13;;;4.30;;
71771;SDS011;59606;52.138;5.424;2023-12-14T07:00:41;11.45;;;3.88;;
71771;SDS011;59606;52.138;5.424;2023-12-14T07:03:08;9.50;;;4.10;;
71771;SDS011;59606;52.138;5.424;2023-12-14T07:05:35;9.95;;;3.72;;
71771;SDS011;59606;52.138;5.424;2023-12-14T07:08:02;8.45;;;4.28;;
71771;SDS011;59606;52.138;5.424;2023-12-14T07:10:29;8.63;;;3.60;;
71771;SDS011;59606;52.138;5.424;2023-12-14T07:12:56;9.55;;;3.53;;
71771;SDS011;59606;52.138;5.424;2023-12-14T07:15:23;7.67;;;3.50;;
71771;SDS011;59606;52.138;5.424;2023-12-14T07:17:50;10.07;;;4.32;;
71771;SDS011;59606;52.138;5.424;2023-12-14T07:20:16;9.27;;;3.00;;
71771;SDS011;59606;52.138;5.424;2023-12-14T07:22:43;8.65;;;3.60;;
71771;SDS011;59606;52.138;5.424;2023-12-14T07:25:10;8.38;;;4.00;;
71771;SDS011;59606;52.138;5.424;2023-12-14T07:27:36;8.27;;;3.73;;
71771;SDS011;59606;52.138;5.424;2023-12-14T07:30:03;10.15;;;4.20;;
71771;SDS011;59606;52.138;5.424;2023-12-14T07:32:30;10.27;;;4.25;;
71771;SDS011;59606;52.138;5.424;2023-12-14T07:34:56;9.02;;;4.28;;
71771;SDS011;59606;52.138;5.424;2023-12-14T07:37:23;7.70;;;3.58;;
71771;SDS011;59606;52.138;5.424;2023-12-14T07:39:49;9.03;;;3.70;;
71771;SDS011;59606;52.138;5.424;2023-12-14T07:42:16;9.32;;;4.00;;
71771;SDS011;59606;52.138;5.424;2023-12-14T07:44:46;10.43;;;3.97;;
71771;SDS011;59606;52.138;5.424;2023-12-14T07:47:13;9.80;;;4.30;;
71771;SDS011;59606;52.138;5.424;2023-12-14T07:49:40;8.63;;;4.10;;
71771;SDS011;59606;52.138;5.424;2023-12-14T07:52:07;9.20;;;4.13;;
71771;SDS011;59606;52.138;5.424;2023-12-14T07:54:33;8.90;;;4.20;;
71771;SDS011;59606;52.138;5.424;2023-12-14T07:57:00;11.73;;;4.80;;
71771;SDS011;59606;52.138;5.424;2023-12-14T07:59:27;8.98;;;3.83;;
71771;SDS011;59606;52.138;5.424;2023-12-14T08:01:56;10.85;;;4.78;;
71771;SDS011;59606;52.138;5.424;2023-12-14T08:04:22;10.73;;;4.40;;
71771;SDS011;59606;52.138;5.424;2023-12-14T08:06:49;9.32;;;4.25;;
71771;SDS011;59606;52.138;5.424;2023-12-14T08:09:17;8.05;;;3.80;;
71771;SDS011;59606;52.138;5.424;2023-12-14T08:11:44;8.95;;;4.28;;
71771;SDS011;59606;52.138;5.424;2023-12-14T08:14:10;12.77;;;4.40;;
71771;SDS011;59606;52.138;5.424;2023-12-14T08:16:37;10.63;;;4.67;;
71771;SDS011;59606;52.138;5.424;2023-12-14T08:19:04;9.02;;;4.35;;
71771;SDS011;59606;52.138;5.424;2023-12-14T08:21:31;9.07;;;3.90;;
71771;SDS011;59606;52.138;5.424;2023-12-14T08:23:57;8.07;;;4.00;;
71771;SDS011;59606;52.138;5.424;2023-12-14T08:26:24;11.27;;;4.65;;
71771;SDS011;59606;52.138;5.424;2023-12-14T08:28:50;10.97;;;4.40;;
71771;SDS011;59606;52.138;5.424;2023-12-14T08:31:17;11.52;;;4.40;;
71771;SDS011;59606;52.138;5.424;2023-12-14T08:33:44;9.20;;;4.13;;
71771;SDS011;59606;52.138;5.424;2023-12-14T08:36:15;7.90;;;3.72;;
71771;SDS011;59606;52.138;5.424;2023-12-14T08:38:43;10.48;;;4.40;;
71771;SDS011;59606;52.138;5.424;2023-12-14T08:41:16;9.70;;;4.77;;
71771;SDS011;59606;52.138;5.424;2023-12-14T08:43:43;14.85;;;4.97;;
71771;SDS011;59606;52.138;5.424;2023-12-14T08:46:10;7.88;;;3.60;;
71771;SDS011;59606;52.138;5.424;2023-12-14T08:48:36;9.07;;;3.72;;
71771;SDS011;59606;52.138;5.424;2023-12-14T08:51:04;9.07;;;4.00;;
71771;SDS011;59606;52.138;5.424;2023-12-14T08:53:31;10.07;;;4.57;;
71771;SDS011;59606;52.138;5.424;2023-12-14T08:55:58;8.60;;;4.35;;
71771;SDS011;59606;52.138;5.424;2023-12-14T08:58:25;10.75;;;4.60;;
71771;SDS011;59606;52.138;5.424;2023-12-14T09:00:52;10.20;;;4.03;;
71771;SDS011;59606;52.138;5.424;2023-12-14T09:03:19;10.52;;;4.18;;
71771;SDS011;59606;52.138;5.424;2023-12-14T09:05:46;9.00;;;4.23;;
71771;SDS011;59606;52.138;5.424;2023-12-14T09:08:14;9.25;;;4.13;;
71771;SDS011;59606;52.138;5.424;2023-12-14T09:10:40;10.98;;;5.15;;
71771;SDS011;59606;52.138;5.424;2023-12-14T09:13:07;9.63;;;3.97;;
71771;SDS011;59606;52.138;5.424;2023-12-14T09:15:34;9.00;;;4.32;;
71771;SDS011;59606;52.138;5.424;2023-12-14T09:18:01;9.27;;;4.00;;
71771;SDS011;59606;52.138;5.424;2023-12-14T09:20:29;11.00;;;3.92;;
71771;SDS011;59606;52.138;5.424;2023-12-14T09:22:55;9.65;;;4.18;;
71771;SDS011;59606;52.138;5.424;2023-12-14T09:25:22;10.07;;;4.38;;
71771;SDS011;59606;52.138;5.424;2023-12-14T09:27:49;9.02;;;4.32;;
71771;SDS011;59606;52.138;5.424;2023-12-14T09:30:17;10.33;;;4.30;;
71771;SDS011;59606;52.138;5.424;2023-12-14T09:32:44;9.57;;;4.20;;
71771;SDS011;59606;52.138;5.424;2023-12-14T09:35:11;9.07;;;4.15;;
71771;SDS011;59606;52.138;5.424;2023-12-14T09:37:37;10.95;;;4.50;;
71771;SDS011;59606;52.138;5.424;2023-12-14T09:40:05;10.30;;;4.25;;
71771;SDS011;59606;52.138;5.424;2023-12-14T09:42:36;8.60;;;4.10;;
71771;SDS011;59606;52.138;5.424;2023-12-14T09:45:06;9.82;;;4.97;;
71771;SDS011;59606;52.138;5.424;2023-12-14T09:47:35;10.88;;;5.15;;
71771;SDS011;59606;52.138;5.424;2023-12-14T09:50:05;9.93;;;4.30;;
71771;SDS011;59606;52.138;5.424;2023-12-14T09:52:33;9.48;;;4.53;;
71771;SDS011;59606;52.138;5.424;2023-12-14T09:55:00;10.77;;;4.43;;
71771;SDS011;59606;52.138;5.424;2023-12-14T09:57:26;10.98;;;4.28;;
71771;SDS011;59606;52.138;5.424;2023-12-14T09:59:53;8.57;;;4.28;;
71771;SDS011;59606;52.138;5.424;2023-12-14T10:02:24;8.48;;;4.10;;
71771;SDS011;59606;52.138;5.424;2023-12-14T10:04:52;8.25;;;4.00;;
71771;SDS011;59606;52.138;5.424;2023-12-14T10:07:21;10.03;;;3.90;;
71771;SDS011;59606;52.138;5.424;2023-12-14T10:09:48;9.55;;;3.88;;
71771;SDS011;59606;52.138;5.424;2023-12-14T10:12:15;7.50;;;3.53;;
71771;SDS011;59606;52.138;5.424;2023-12-14T10:14:42;7.32;;;3.88;;
71771;SDS011;59606;52.138;5.424;2023-12-14T10:17:19;8.80;;;3.85;;
71771;SDS011;59606;52.138;5.424;2023-12-14T10:19:48;8.13;;;3.33;;
71771;SDS011;59606;52.138;5.424;2023-12-14T10:22:16;9.07;;;3.95;;
71771;SDS011;59606;52.138;5.424;2023-12-14T10:24:44;9.90;;;4.38;;
71771;SDS011;59606;52.138;5.424;2023-12-14T10:27:16;10.63;;;4.53;;
71771;SDS011;59606;52.138;5.424;2023-12-14T10:29:43;11.05;;;3.50;;
71771;SDS011;59606;52.138;5.424;2023-12-14T10:32:11;10.57;;;4.23;;
71771;SDS011;59606;52.138;5.424;2023-12-14T10:34:38;9.38;;;3.85;;
71771;SDS011;59606;52.138;5.424;2023-12-14T10:37:08;9.20;;;3.92;;
71771;SDS011;59606;52.138;5.424;2023-12-14T10:39:35;10.20;;;4.75;;
71771;SDS011;59606;52.138;5.424;2023-12-14T10:42:02;13.80;;;4.60;;
71771;SDS011;59606;52.138;5.424;2023-12-14T10:44:44;10.17;;;3.97;;
71771;SDS011;59606;52.138;5.424;2023-12-14T10:47:33;10.30;;;4.15;;
71771;SDS011;59606;52.138;5.424;2023-12-14T10:50:01;9.23;;;4.35;;
71771;SDS011;59606;52.138;5.424;2023-12-14T10:52:28;9.07;;;3.88;;
71771;SDS011;59606;52.138;5.424;2023-12-14T10:54:58;8.50;;;4.53;;
71771;SDS011;59606;52.138;5.424;2023-12-14T10:57:28;8.83;;;4.40;;
71771;SDS011;59606;52.138;5.424;2023-12-14T10:59:57;10.43;;;4.57;;
71771;SDS011;59606;52.138;5.424;2023-12-14T11:02:27;8.13;;;3.60;;
71771;SDS011;59606;52.138;5.424;2023-12-14T11:04:57;9.60;;;4.35;;
71771;SDS011;59606;52.138;5.424;2023-12-14T11:10:13;13.90;;;4.50;;
71771;SDS011;59606;52.138;5.424;2023-12-14T11:12:50;8.35;;;3.78;;
71771;SDS011;59606;52.138;5.424;2023-12-14T11:15:21;8.98;;;3.97;;
71771;SDS011;59606;52.138;5.424;2023-12-14T11:18:19;9.52;;;4.28;;
71771;SDS011;59606;52.138;5.424;2023-12-14T11:23:12;10.17;;;4.67;;
71771;SDS011;59606;52.138;5.424;2023-12-14T11:25:48;10.30;;;4.40;;
71771;SDS011;59606;52.138;5.424;2023-12-14T11:28:24;8.60;;;3.92;;
71771;SDS011;59606;52.138;5.424;2023-12-14T11:30:53;9.55;;;3.90;;
71771;SDS011;59606;52.138;5.424;2023-12-14T11:33:21;8.77;;;3.97;;
71771;SDS011;59606;52.138;5.424;2023-12-14T11:35:50;10.07;;;4.50;;
71771;SDS011;59606;52.138;5.424;2023-12-14T11:38:19;9.80;;;4.68;;
71771;SDS011;59606;52.138;5.424;2023-12-14T11:40:47;9.52;;;4.10;;
71771;SDS011;59606;52.138;5.424;2023-12-14T11:43:15;10.55;;;4.50;;
71771;SDS011;59606;52.138;5.424;2023-12-14T11:45:42;8.45;;;4.32;;
71771;SDS011;59606;52.138;5.424;2023-12-14T11:48:10;8.67;;;4.30;;
71771;SDS011;59606;52.138;5.424;2023-12-14T11:50:39;9.73;;;4.72;;
71771;SDS011;59606;52.138;5.424;2023-12-14T11:53:06;10.98;;;4.03;;
71771;SDS011;59606;52.138;5.424;2023-12-14T11:55:35;7.68;;;3.85;;
71771;SDS011;59606;52.138;5.424;2023-12-14T11:58:04;8.98;;;4.32;;
71771;SDS011;59606;52.138;5.424;2023-12-14T12:00:31;11.17;;;4.53;;
71771;SDS011;59606;52.138;5.424;2023-12-14T12:03:08;9.77;;;4.55;;
71771;SDS011;59606;52.138;5.424;2023-12-14T12:05:35;9.93;;;4.30;;
71771;SDS011;59606;52.138;5.424;2023-12-14T12:08:03;9.32;;;4.70;;
71771;SDS011;59606;52.138;5.424;2023-12-14T12:10:30;11.10;;;4.35;;
71771;SDS011;59606;52.138;5.424;2023-12-14T12:13:03;8.87;;;4.37;;
71771;SDS011;59606;52.138;5.424;2023-12-14T12:15:34;10.63;;;3.80;;
71771;SDS011;59606;52.138;5.424;2023-12-14T12:18:03;10.68;;;4.00;;
71771;SDS011;59606;52.138;5.424;2023-12-14T12:20:34;8.02;;;4.30;;
71771;SDS011;59606;52.138;5.424;2023-12-14T12:23:01;11.18;;;4.65;;
71771;SDS011;59606;52.138;5.424;2023-12-14T12:25:32;7.60;;;3.77;;
71771;SDS011;59606;52.138;5.424;2023-12-14T12:28:00;8.15;;;4.00;;
71771;SDS011;59606;52.138;5.424;2023-12-14T12:30:27;9.50;;;3.75;;
71771;SDS011;59606;52.138;5.424;2023-12-14T12:32:54;8.65;;;4.10;;
71771;SDS011;59606;52.138;5.424;2023-12-14T12:35:22;9.73;;;4.20;;
71771;SDS011;59606;52.138;5.424;2023-12-14T12:37:50;9.13;;;4.10;;
71771;SDS011;59606;52.138;5.424;2023-12-14T12:40:20;9.60;;;4.40;;
71771;SDS011;59606;52.138;5.424;2023-12-14T12:42:49;11.38;;;5.38;;
71771;SDS011;59606;52.138;5.424;2023-12-14T12:45:16;8.10;;;3.92;;
71771;SDS011;59606;52.138;5.424;2023-12-14T12:47:44;11.82;;;4.30;;
71771;SDS011;59606;52.138;5.424;2023-12-14T12:50:11;10.33;;;4.03;;
71771;SDS011;59606;52.138;5.424;2023-12-14T12:52:39;9.50;;;4.45;;
71771;SDS011;59606;52.138;5.424;2023-12-14T12:55:10;8.85;;;3.63;;
71771;SDS011;59606;52.138;5.424;2023-12-14T12:57:37;8.07;;;4.25;;
71771;SDS011;59606;52.138;5.424;2023-12-14T13:00:04;7.90;;;3.95;;
71771;SDS011;59606;52.138;5.424;2023-12-14T13:02:34;8.93;;;3.93;;
71771;SDS011;59606;52.138;5.424;2023-12-14T13:05:00;9.35;;;3.70;;
71771;SDS011;59606;52.138;5.424;2023-12-14T13:07:27;8.05;;;3.78;;
71771;SDS011;59606;52.138;5.424;2023-12-14T13:09:53;8.57;;;3.47;;
71771;SDS011;59606;52.138;5.424;2023-12-14T13:12:20;9.30;;;4.53;;
71771;SDS011;59606;52.138;5.424;2023-12-14T13:14:46;10.40;;;3.93;;
71771;SDS011;59606;52.138;5.424;2023-12-14T13:17:13;8.75;;;4.00;;
71771;SDS011;59606;52.138;5.424;2023-12-14T13:19:39;8.98;;;4.75;;
71771;SDS011;59606;52.138;5.424;2023-12-14T13:22:06;8.02;;;3.97;;
71771;SDS011;59606;52.138;5.424;2023-12-14T13:24:32;8.80;;;4.40;;
71771;SDS011;59606;52.138;5.424;2023-12-14T13:26:59;8.03;;;3.67;;
71771;SDS011;59606;52.138;5.424;2023-12-14T13:29:25;9.85;;;3.42;;
71771;SDS011;59606;52.138;5.424;2023-12-14T13:31:52;8.02;;;3.33;;
71771;SDS011;59606;52.138;5.424;2023-12-14T13:34:19;8.88;;;3.45;;
71771;SDS011;59606;52.138;5.424;2023-12-14T13:36:45;9.57;;;3.97;;
71771;SDS011;59606;52.138;5.424;2023-12-14T13:39:13;10.53;;;3.60;;
71771;SDS011;59606;52.138;5.424;2023-12-14T13:41:40;8.93;;;3.55;;
71771;SDS011;59606;52.138;5.424;2023-12-14T13:44:16;6.80;;;2.83;;
71771;SDS011;59606;52.138;5.424;2023-12-14T13:46:43;7.55;;;3.50;;
71771;SDS011;59606;52.138;5.424;2023-12-14T13:49:09;5.93;;;2.88;;
71771;SDS011;59606;52.138;5.424;2023-12-14T13:51:36;5.97;;;2.63;;
71771;SDS011;59606;52.138;5.424;2023-12-14T13:54:03;5.75;;;2.60;;
71771;SDS011;59606;52.138;5.424;2023-12-14T13:56:29;8.25;;;2.90;;
71771;SDS011;59606;52.138;5.424;2023-12-14T13:58:57;6.57;;;2.35;;
71771;SDS011;59606;52.138;5.424;2023-12-14T14:01:23;6.28;;;2.40;;
71771;SDS011;59606;52.138;5.424;2023-12-14T14:03:51;5.73;;;2.93;;
71771;SDS011;59606;52.138;5.424;2023-12-14T14:06:18;7.50;;;2.83;;
71771;SDS011;59606;52.138;5.424;2023-12-14T14:08:47;6.90;;;3.15;;
71771;SDS011;59606;52.138;5.424;2023-12-14T14:11:13;8.95;;;3.03;;
71771;SDS011;59606;52.138;5.424;2023-12-14T14:13:40;7.78;;;2.95;;
71771;SDS011;59606;52.138;5.424;2023-12-14T14:16:07;7.77;;;3.47;;
71771;SDS011;59606;52.138;5.424;2023-12-14T14:18:34;6.65;;;3.42;;
71771;SDS011;59606;52.138;5.424;2023-12-14T14:21:01;5.78;;;2.67;;
71771;SDS011;59606;52.138;5.424;2023-12-14T14:23:28;9.48;;;3.08;;
71771;SDS011;59606;52.138;5.424;2023-12-14T14:25:56;6.78;;;2.88;;
71771;SDS011;59606;52.138;5.424;2023-12-14T14:28:23;7.23;;;2.90;;
71771;SDS011;59606;52.138;5.424;2023-12-14T14:30:51;8.77;;;3.30;;
71771;SDS011;59606;52.138;5.424;2023-12-14T14:33:18;7.32;;;3.00;;
71771;SDS011;59606;52.138;5.424;2023-12-14T14:35:45;8.00;;;3.08;;
71771;SDS011;59606;52.138;5.424;2023-12-14T14:38:13;8.95;;;3.90;;
71771;SDS011;59606;52.138;5.424;2023-12-14T14:40:41;8.13;;;3.83;;
71771;SDS011;59606;52.138;5.424;2023-12-14T14:43:08;7.50;;;3.65;;
71771;SDS011;59606;52.138;5.424;2023-12-14T14:45:35;8.88;;;4.07;;
71771;SDS011;59606;52.138;5.424;2023-12-14T14:48:04;8.93;;;3.80;;